Normand Flipper — 9V6929 — position and weather

sailwx.info

Track history (hours):
 
Tides and Currents Weather Stations Pressure Air Temp Water Temp Dewpoint Dewpoint Depression Visibility Wind Speed Wind Dir Waves Ship Positions

Normand Flipper

Last reported at 2015-Sep-02 18:32 UTC. Time now 2015-Sep-02 19:03 UTC.
Position N 57°09' W 002°05'.

Length 89 m; draft 4.4 m.

Type: Other ship. MMSI: 566522000.

Date/timePositionNaut miles runAvg speedWind from/ knotsBaromVisibWave heightAir tempDewpointWater temp
2015-Sep-02 18:32N 57°09' W 002°05'0 0.0
2015-Sep-02 17:29N 57°09' W 002°05'0 0.0
2015-Sep-02 16:32N 57°09' W 002°05'0 0.0
2015-Sep-02 15:32N 57°09' W 002°05'0 0.0
2015-Sep-02 14:32N 57°09' W 002°05'0 0.1
2015-Sep-02 13:05N 57°08' W 002°05'0 0.0
2015-Sep-02 12:29N 57°08' W 002°05'0 0.0
2015-Sep-02 11:29N 57°08' W 002°05'0 0.0
2015-Sep-02 10:23N 57°08' W 002°05'0 0.0
2015-Sep-02 09:33N 57°08' W 002°05'3 2.6
2015-Sep-02 08:33N 57°10' W 002°01'1 1.3
2015-Sep-02 07:30N 57°11' W 001°60'0 0.0
2015-Sep-02 06:33N 57°11' W 001°60'0 0.0
2015-Sep-02 05:33N 57°11' W 001°60'0 0.0
2015-Sep-02 04:33N 57°11' W 001°60'3 3.3
2015-Sep-02 03:33N 57°12' W 001°54'0 0.0
2015-Sep-01 01:33N 57°12' W 001°53'7 6.3
2015-Sep-01 00:25N 57°08' W 002°05'0 0.0
2015-Aug-31 23:27N 57°08' W 002°05'0 0.0
2015-Aug-31 22:33N 57°08' W 002°05'0 0.0
2015-Aug-31 21:33N 57°08' W 002°05'0 0.0
2015-Aug-31 20:33N 57°08' W 002°05'0 0.0
2015-Aug-31 19:27N 57°08' W 002°05'0 0.0
2015-Aug-31 17:33N 57°08' W 002°05'0 0.1
2015-Aug-31 16:31N 57°08' W 002°05'3 2.9
2015-Aug-31 15:33N 57°10' W 002°00'3 0.1
2015-Aug-29 19:32N 57°08' W 002°04'0 0.4
2015-Aug-29 18:21N 57°09' W 002°05'0 0.0
2015-Aug-29 17:33N 57°09' W 002°05'0 0.0
2015-Aug-29 16:33N 57°09' W 002°05'0 0.4
2015-Aug-29 15:33N 57°08' W 002°05'0 0.0
2015-Aug-29 14:11N 57°08' W 002°05'0 0.0
2015-Aug-29 13:23N 57°08' W 002°05'0 0.0
2015-Aug-29 11:23N 57°08' W 002°05'0 0.0
2015-Aug-29 10:23N 57°08' W 002°05'0 0.0
2015-Aug-29 09:29N 57°08' W 002°05'0 0.0
2015-Aug-29 08:11N 57°08' W 002°05'0 0.0
2015-Aug-29 07:23N 57°08' W 002°05'0 0.0
2015-Aug-29 06:30N 57°08' W 002°05'0 0.0
2015-Aug-29 05:17N 57°08' W 002°05'0 0.0
2015-Aug-29 04:29N 57°08' W 002°05'0 0.0
2015-Aug-29 03:29N 57°08' W 002°05'0 0.0
2015-Aug-29 02:28N 57°08' W 002°05'5 5.0
2015-Aug-29 01:33N 57°11' W 001°57'1 0.0
2015-Aug-27 14:13N 57°10' W 001°58'4 5.9
2015-Aug-27 13:33N 57°08' W 002°05'0 0.0
2015-Aug-27 12:25N 57°08' W 002°05'0 0.0
2015-Aug-27 11:31N 57°08' W 002°05'0 0.0
2015-Aug-27 10:31N 57°08' W 002°05'0 0.0
2015-Aug-27 09:31N 57°08' W 002°05'0 0.0
2015-Aug-27 08:31N 57°08' W 002°05'0 0.0
2015-Aug-27 06:31N 57°08' W 002°05'0 0.0
2015-Aug-27 05:31N 57°08' W 002°05'0 0.0
2015-Aug-27 04:19N 57°08' W 002°05'0 0.0
2015-Aug-27 03:25N 57°08' W 002°05'0 0.0
2015-Aug-27 02:31N 57°08' W 002°05'0 0.0
2015-Aug-27 01:25N 57°08' W 002°05'0 0.0
2015-Aug-27 00:31N 57°08' W 002°05'2 2.2
2015-Aug-26 23:34N 57°10' W 002°02'4 0.1
2015-Aug-25 16:12N 57°12' W 001°55'6 9.7
2015-Aug-25 15:33N 57°08' W 002°05'0 0.1
2015-Aug-25 14:32N 57°08' W 002°05'0 0.0
2015-Aug-25 13:32N 57°08' W 002°05'0 0.0
2015-Aug-25 12:32N 57°08' W 002°05'0 0.0
2015-Aug-25 10:26N 57°08' W 002°05'0 0.0
2015-Aug-25 09:20N 57°08' W 002°05'0 0.0
2015-Aug-25 08:32N 57°08' W 002°05'0 0.0
2015-Aug-25 07:08N 57°08' W 002°05'0 0.0
2015-Aug-25 06:32N 57°08' W 002°05'0 0.0
2015-Aug-25 05:26N 57°08' W 002°05'0 0.0
2015-Aug-25 04:20N 57°08' W 002°05'0 0.0
2015-Aug-25 03:32N 57°08' W 002°05'2 1.7
2015-Aug-25 02:32N 57°09' W 002°02'  
Track history (hours):
 
Tides and Currents Weather Stations Pressure Air Temp Water Temp Dewpoint Dewpoint Depression Visibility Wind Speed Wind Dir Waves Ship Positions

Normand Flipper

Last reported at 2015-Sep-02 18:32 UTC. Time now 2015-Sep-02 19:03 UTC.
Position N 57°09' W 002°05'.

Length 89 m; draft 4.4 m.

Type: Other ship. MMSI: 566522000.

Date/timePositionNaut miles runAvg speedWind from/ knotsBaromVisibWave heightAir tempDewpointWater temp
2015-Sep-02 18:32N 57°09' W 002°05'0 0.0
2015-Sep-02 17:29N 57°09' W 002°05'0 0.0
2015-Sep-02 16:32N 57°09' W 002°05'0 0.0
2015-Sep-02 15:32N 57°09' W 002°05'0 0.0
2015-Sep-02 14:32N 57°09' W 002°05'0 0.1
2015-Sep-02 13:05N 57°08' W 002°05'0 0.0
2015-Sep-02 12:29N 57°08' W 002°05'0 0.0
2015-Sep-02 11:29N 57°08' W 002°05'0 0.0
2015-Sep-02 10:23N 57°08' W 002°05'0 0.0
2015-Sep-02 09:33N 57°08' W 002°05'3 2.6
2015-Sep-02 08:33N 57°10' W 002°01'1 1.3
2015-Sep-02 07:30N 57°11' W 001°60'0 0.0
2015-Sep-02 06:33N 57°11' W 001°60'0 0.0
2015-Sep-02 05:33N 57°11' W 001°60'0 0.0
2015-Sep-02 04:33N 57°11' W 001°60'3 3.3
2015-Sep-02 03:33N 57°12' W 001°54'0 0.0
2015-Sep-01 01:33N 57°12' W 001°53'7 6.3
2015-Sep-01 00:25N 57°08' W 002°05'0 0.0
2015-Aug-31 23:27N 57°08' W 002°05'0 0.0
2015-Aug-31 22:33N 57°08' W 002°05'0 0.0
2015-Aug-31 21:33N 57°08' W 002°05'0 0.0
2015-Aug-31 20:33N 57°08' W 002°05'0 0.0
2015-Aug-31 19:27N 57°08' W 002°05'0 0.0
2015-Aug-31 17:33N 57°08' W 002°05'0 0.1
2015-Aug-31 16:31N 57°08' W 002°05'3 2.9
2015-Aug-31 15:33N 57°10' W 002°00'3 0.1
2015-Aug-29 19:32N 57°08' W 002°04'0 0.4
2015-Aug-29 18:21N 57°09' W 002°05'0 0.0
2015-Aug-29 17:33N 57°09' W 002°05'0 0.0
2015-Aug-29 16:33N 57°09' W 002°05'0 0.4
2015-Aug-29 15:33N 57°08' W 002°05'0 0.0
2015-Aug-29 14:11N 57°08' W 002°05'0 0.0
2015-Aug-29 13:23N 57°08' W 002°05'0 0.0
2015-Aug-29 11:23N 57°08' W 002°05'0 0.0
2015-Aug-29 10:23N 57°08' W 002°05'0 0.0
2015-Aug-29 09:29N 57°08' W 002°05'0 0.0
2015-Aug-29 08:11N 57°08' W 002°05'0 0.0
2015-Aug-29 07:23N 57°08' W 002°05'0 0.0
2015-Aug-29 06:30N 57°08' W 002°05'0 0.0
2015-Aug-29 05:17N 57°08' W 002°05'0 0.0
2015-Aug-29 04:29N 57°08' W 002°05'0 0.0
2015-Aug-29 03:29N 57°08' W 002°05'0 0.0
2015-Aug-29 02:28N 57°08' W 002°05'5 5.0
2015-Aug-29 01:33N 57°11' W 001°57'1 0.0
2015-Aug-27 14:13N 57°10' W 001°58'4 5.9
2015-Aug-27 13:33N 57°08' W 002°05'0 0.0
2015-Aug-27 12:25N 57°08' W 002°05'0 0.0
2015-Aug-27 11:31N 57°08' W 002°05'0 0.0
2015-Aug-27 10:31N 57°08' W 002°05'0 0.0
2015-Aug-27 09:31N 57°08' W 002°05'0 0.0
2015-Aug-27 08:31N 57°08' W 002°05'0 0.0
2015-Aug-27 06:31N 57°08' W 002°05'0 0.0
2015-Aug-27 05:31N 57°08' W 002°05'0 0.0
2015-Aug-27 04:19N 57°08' W 002°05'0 0.0
2015-Aug-27 03:25N 57°08' W 002°05'0 0.0
2015-Aug-27 02:31N 57°08' W 002°05'0 0.0
2015-Aug-27 01:25N 57°08' W 002°05'0 0.0
2015-Aug-27 00:31N 57°08' W 002°05'2 2.2
2015-Aug-26 23:34N 57°10' W 002°02'4 0.1
2015-Aug-25 16:12N 57°12' W 001°55'6 9.7
2015-Aug-25 15:33N 57°08' W 002°05'0 0.1
2015-Aug-25 14:32N 57°08' W 002°05'0 0.0
2015-Aug-25 13:32N 57°08' W 002°05'0 0.0
2015-Aug-25 12:32N 57°08' W 002°05'0 0.0
2015-Aug-25 10:26N 57°08' W 002°05'0 0.0
2015-Aug-25 09:20N 57°08' W 002°05'0 0.0
2015-Aug-25 08:32N 57°08' W 002°05'0 0.0
2015-Aug-25 07:08N 57°08' W 002°05'0 0.0
2015-Aug-25 06:32N 57°08' W 002°05'0 0.0
2015-Aug-25 05:26N 57°08' W 002°05'0 0.0
2015-Aug-25 04:20N 57°08' W 002°05'0 0.0
2015-Aug-25 03:32N 57°08' W 002°05'2 1.7
2015-Aug-25 02:32N 57°09' W 002°02'  

Dump ship's entire track history